Glen Ferris, West Virginia
Current Conditions -  °F | °C
As of 10:51 PM on Wednesday 26 Nov 2014 (Local Time) from KBKW Reporting Station
Scattered Clouds Scattered Clouds  
Wind Chill: 27°   Ceiling: Unl
Heat Index: 32°   Visibility: 7mi
Dew Point: 31°   Wind: 5mph
Humidity: 96%   Direction: 170°S
Pressure: 29.95"   Gusts: NA
Location:  38.15°N, 81.21°W
Report Text: KBKW 270351Z AUTO 17004KT 7SM SCT120 00/M01 A2995 RMK AO2 SLP167 T00001006
Loading
Personal Weather Stations






























Interactive Weather Map New forecast layout! Learn more

10-Day Weather Forecast

Advertisements
Track Severe Weather on mobile